createdAt,value
2022-08-19T00:01:15.348Z,100171.28
2022-08-19T00:04:57.407Z,100176.73
2022-08-19T00:08:27.020Z,100174.16
2022-08-19T00:11:56.752Z,100179.44
2022-08-19T00:15:24.715Z,100173.00
2022-08-19T00:18:52.919Z,100173.36
2022-08-19T00:22:21.212Z,100172.07
2022-08-19T00:25:48.785Z,100170.80
2022-08-19T00:29:18.696Z,100162.86
2022-08-19T00:32:45.618Z,100156.87
2022-08-19T00:36:14.663Z,100156.57
2022-08-19T00:39:41.831Z,100156.87
2022-08-19T00:43:14.559Z,100156.27
2022-08-19T00:46:44.120Z,100154.35
2022-08-19T00:50:15.175Z,100153.45
2022-08-19T00:53:44.740Z,100152.39
2022-08-19T00:57:14.751Z,100151.73
2022-08-19T01:00:41.949Z,100148.90
2022-08-19T01:04:09.732Z,100148.67
2022-08-19T01:07:38.556Z,100149.71
2022-08-19T01:11:06.194Z,100154.08
2022-08-19T01:14:39.485Z,100152.62
2022-08-19T01:18:13.364Z,100153.59
2022-08-19T01:21:44.508Z,100151.05
2022-08-19T01:25:18.935Z,100143.53
2022-08-19T01:28:48.591Z,100144.23
2022-08-19T01:32:32.006Z,100137.48
2022-08-19T01:36:08.487Z,100132.88
2022-08-19T01:39:35.458Z,100128.05
2022-08-19T01:43:04.290Z,100128.98
2022-08-19T01:46:31.633Z,100125.73
2022-08-19T01:50:00.582Z,100124.11
2022-08-19T01:53:33.662Z,100128.55
2022-08-19T01:57:06.563Z,100122.89
2022-08-19T02:00:35.268Z,100122.77
2022-08-19T02:04:02.315Z,100124.10
2022-08-19T02:07:30.463Z,100116.86
2022-08-19T02:10:58.071Z,100112.75
2022-08-19T02:14:24.912Z,100105.55
2022-08-19T02:17:52.840Z,100103.05
2022-08-19T02:21:21.796Z,100093.15
2022-08-19T02:24:49.209Z,100081.38
2022-08-19T02:28:18.713Z,100074.86
2022-08-19T02:31:46.130Z,100070.61
2022-08-19T02:35:14.440Z,100068.33
2022-08-19T02:38:41.888Z,100078.28
2022-08-19T02:42:10.234Z,100085.45
2022-08-19T02:45:40.543Z,100098.02
2022-08-19T02:49:10.726Z,100101.80
2022-08-19T02:52:38.404Z,100102.19
2022-08-19T02:56:08.894Z,100105.74
2022-08-19T02:59:36.969Z,100100.13
2022-08-19T03:03:04.439Z,100094.83
2022-08-19T03:06:31.746Z,100098.23
2022-08-19T03:09:59.116Z,100095.58
2022-08-19T03:13:26.616Z,100095.46
2022-08-19T03:16:55.717Z,100094.08
2022-08-19T03:20:23.048Z,100095.98
2022-08-19T03:23:51.285Z,100091.91
2022-08-19T03:27:18.885Z,100091.73
2022-08-19T03:30:58.185Z,100090.55
2022-08-19T03:34:31.889Z,100090.16
2022-08-19T03:38:00.673Z,100089.66
2022-08-19T03:41:34.222Z,100087.20
2022-08-19T03:45:13.337Z,100082.99
2022-08-19T03:48:41.884Z,100078.52
2022-08-19T03:52:09.329Z,100079.73
2022-08-19T03:55:36.532Z,100077.80
2022-08-19T03:59:04.318Z,100077.11
2022-08-19T04:02:31.754Z,100076.16
2022-08-19T04:05:58.866Z,100071.31
2022-08-19T04:09:25.935Z,100079.19
2022-08-19T04:12:53.074Z,100081.17
2022-08-19T04:16:21.161Z,100076.85
2022-08-19T04:19:56.169Z,100078.77
2022-08-19T04:23:23.109Z,100083.50
2022-08-19T04:26:50.848Z,100088.64
2022-08-19T04:30:20.500Z,100088.05
2022-08-19T04:33:47.070Z,100087.48
2022-08-19T04:37:15.325Z,100085.31
2022-08-19T04:41:10.347Z,100092.15
2022-08-19T04:44:46.425Z,100102.35
2022-08-19T04:48:26.894Z,100101.09
2022-08-19T04:51:57.107Z,100106.53
2022-08-19T04:55:26.889Z,100108.70
2022-08-19T04:58:55.254Z,100109.42
2022-08-19T05:02:26.837Z,100110.42
2022-08-19T05:05:54.458Z,100108.69
2022-08-19T05:09:22.993Z,100098.87
2022-08-19T05:12:49.988Z,100093.31
2022-08-19T05:16:18.718Z,100101.55
2022-08-19T05:20:02.994Z,100101.06
2022-08-19T05:23:31.858Z,100104.05
2022-08-19T05:27:00.295Z,100096.64
2022-08-19T05:30:46.168Z,100100.23
2022-08-19T05:34:20.096Z,100088.80
2022-08-19T05:37:47.453Z,100084.80
2022-08-19T05:41:18.003Z,100082.33
2022-08-19T05:44:46.794Z,100085.98
2022-08-19T05:48:14.034Z,100101.77
2022-08-19T05:51:41.123Z,100109.98
2022-08-19T05:55:10.598Z,100112.39
2022-08-19T05:58:38.389Z,100117.56
2022-08-19T06:02:07.744Z,100113.82
2022-08-19T06:05:39.109Z,100109.77
2022-08-19T06:09:16.494Z,100107.00
2022-08-19T06:12:43.198Z,100112.42
2022-08-19T06:16:10.601Z,100123.09
2022-08-19T06:19:40.872Z,100123.69
2022-08-19T06:23:11.017Z,100124.06
2022-08-19T06:30:19.456Z,100120.95
2022-08-19T06:33:47.487Z,100120.63
2022-08-19T06:37:20.272Z,100124.45
2022-08-19T06:40:47.539Z,100118.41
2022-08-19T06:44:15.163Z,100115.45
2022-08-19T06:47:47.374Z,100115.29
2022-08-19T06:51:19.932Z,100116.45
2022-08-19T06:54:55.429Z,100109.92
2022-08-19T06:58:24.183Z,100101.38
2022-08-19T07:02:04.363Z,100103.29
2022-08-19T07:05:31.891Z,100096.89
2022-08-19T07:09:00.535Z,100091.80
2022-08-19T07:12:30.932Z,100080.55
2022-08-19T07:15:58.139Z,100084.10
2022-08-19T07:19:33.059Z,100082.23
2022-08-19T07:23:01.709Z,100081.83
2022-08-19T07:26:42.578Z,100082.86
2022-08-19T07:30:14.605Z,100083.66
2022-08-19T07:33:43.525Z,100088.23
2022-08-19T07:37:12.509Z,100086.27
2022-08-19T07:40:40.498Z,100084.98
2022-08-19T07:44:10.814Z,100077.86
2022-08-19T07:47:47.427Z,100071.23
2022-08-19T07:51:35.902Z,100073.54
2022-08-19T07:55:05.372Z,100075.77
2022-08-19T07:58:33.169Z,100074.64
2022-08-19T10:37:14.656Z,99967.30
2022-08-19T10:40:43.075Z,99964.92
2022-08-19T10:44:12.304Z,99968.45
2022-08-19T10:47:41.424Z,99972.79
2022-08-19T10:51:26.458Z,99967.77
2022-08-19T10:55:11.806Z,99968.88
2022-08-19T10:58:40.105Z,99962.96
2022-08-19T11:02:13.399Z,99957.04
2022-08-19T11:05:40.748Z,99959.89
2022-08-19T11:09:08.572Z,99959.66
2022-08-19T11:12:36.032Z,99961.08
2022-08-19T11:16:07.919Z,99955.68
2022-08-19T11:19:59.518Z,99953.52
2022-08-19T11:23:29.085Z,99940.95
2022-08-19T11:27:03.905Z,99933.71
2022-08-19T11:30:30.773Z,99929.30
2022-08-19T11:33:58.244Z,99921.55
2022-08-19T11:37:25.717Z,99920.30
2022-08-19T11:41:00.823Z,99916.73
2022-08-19T11:44:34.673Z,99913.98
2022-08-19T11:48:04.795Z,99905.52
2022-08-19T11:51:32.595Z,99911.14
2022-08-19T11:55:00.281Z,99910.05
2022-08-19T11:58:27.353Z,99914.01
2022-08-19T12:01:55.101Z,99911.75
2022-08-19T12:05:22.362Z,99908.23
2022-08-19T12:08:49.889Z,99904.26
2022-08-19T12:12:16.906Z,99913.02
2022-08-19T12:15:46.176Z,99908.69
2022-08-19T12:19:13.935Z,99914.12
2022-08-19T12:22:49.878Z,99916.95
2022-08-19T12:26:19.915Z,99917.63
2022-08-19T12:29:46.552Z,99916.30
2022-08-19T12:33:14.900Z,99916.50
2022-08-19T12:36:41.867Z,99917.59
2022-08-19T12:40:13.012Z,99921.61
2022-08-19T12:43:40.913Z,99925.33
2022-08-19T12:47:09.035Z,99928.03
2022-08-19T12:50:37.174Z,99933.73
2022-08-19T12:54:05.155Z,99931.80
2022-08-19T12:57:33.470Z,99927.74
2022-08-19T13:01:00.275Z,99927.15
2022-08-19T13:04:27.544Z,99932.58
2022-08-19T13:07:57.226Z,99931.20
2022-08-19T13:11:26.750Z,99929.73
2022-08-19T13:14:53.448Z,99931.11
2022-08-19T13:18:20.893Z,99929.23
2022-08-19T13:21:51.743Z,99926.56
2022-08-19T13:25:28.071Z,99923.50
2022-08-19T13:29:12.162Z,99926.48
2022-08-19T13:32:56.325Z,99928.73
2022-08-19T13:36:23.065Z,99922.08
2022-08-19T13:39:49.846Z,99920.13
2022-08-19T13:43:22.879Z,99920.39
2022-08-19T13:46:54.247Z,99915.23
2022-08-19T13:50:24.209Z,99921.37
2022-08-19T13:54:03.163Z,99913.21
2022-08-19T13:57:31.550Z,99913.27
2022-08-19T14:01:00.405Z,99909.80
2022-08-19T14:04:27.767Z,99910.86
2022-08-19T14:07:55.061Z,99913.50
2022-08-19T14:11:24.243Z,99913.55
2022-08-19T14:14:51.153Z,99907.02
2022-08-19T14:18:18.818Z,99908.31
2022-08-19T14:21:45.922Z,99906.27
2022-08-19T14:25:16.573Z,99901.07
2022-08-19T14:28:44.182Z,99894.39
2022-08-19T14:32:16.759Z,99890.50
2022-08-19T14:35:46.048Z,99886.66
2022-08-19T14:39:13.167Z,99885.40
2022-08-19T14:42:40.713Z,99881.73
2022-08-19T14:46:10.550Z,99875.44
2022-08-19T14:49:43.106Z,99881.23
2022-08-19T14:53:13.655Z,99876.64
2022-08-19T14:56:44.587Z,99872.80
2022-08-19T15:00:15.199Z,99877.98
2022-08-19T15:03:42.789Z,99881.77
2022-08-19T15:07:10.506Z,99877.48
2022-08-19T15:10:37.469Z,99878.23
2022-08-19T15:14:04.309Z,99880.38
2022-08-19T15:17:32.388Z,99882.25
2022-08-19T15:21:13.786Z,99881.55
2022-08-19T15:24:47.810Z,99882.30
2022-08-19T15:28:17.581Z,99877.77
2022-08-19T15:31:47.897Z,99878.83
2022-08-19T15:35:16.411Z,99882.33
2022-08-19T15:38:46.077Z,99881.59
2022-08-19T15:42:13.060Z,99879.38
2022-08-19T15:45:55.329Z,99879.76
2022-08-19T15:49:23.045Z,99879.24
2022-08-19T15:52:52.366Z,99882.93
2022-08-19T15:57:01.167Z,99883.83
2022-08-19T16:00:45.943Z,99881.11
2022-08-19T16:04:37.820Z,99881.84
2022-08-19T16:08:04.724Z,99884.00
2022-08-19T16:11:39.292Z,99884.21
2022-08-19T16:15:08.252Z,99879.17
2022-08-19T16:18:41.109Z,99883.29
2022-08-19T16:22:09.254Z,99884.30
2022-08-19T16:25:36.767Z,99881.41
2022-08-19T16:29:09.105Z,99886.40
2022-08-19T16:32:43.874Z,99883.36
2022-08-19T16:36:14.392Z,99885.59
2022-08-19T16:39:44.362Z,99888.83
2022-08-19T16:43:13.092Z,99891.19
2022-08-19T16:46:42.460Z,99901.25
2022-08-19T16:50:12.572Z,99906.15
2022-08-19T16:53:41.073Z,99902.85
2022-08-19T16:57:09.147Z,99910.68
2022-08-19T17:00:40.307Z,99913.48
2022-08-19T17:04:08.567Z,99915.52
2022-08-19T17:07:37.875Z,99918.95
2022-08-19T17:11:18.074Z,99924.49
2022-08-19T17:14:48.260Z,99918.40
2022-08-19T17:18:21.802Z,99915.32
2022-08-19T17:21:49.279Z,99913.11
2022-08-19T17:25:17.153Z,99916.66
2022-08-19T17:28:45.138Z,99912.98
2022-08-19T17:32:12.858Z,99913.40
2022-08-19T17:35:44.114Z,99915.85
2022-08-19T17:39:15.185Z,99919.77
2022-08-19T17:42:44.380Z,99919.23
2022-08-19T17:46:25.656Z,99926.73
2022-08-19T17:49:54.258Z,99929.29
2022-08-19T17:53:22.281Z,99928.89
2022-08-19T17:56:50.025Z,99932.38
2022-08-19T18:00:19.856Z,99936.25
2022-08-19T18:03:50.414Z,99942.92
2022-08-19T18:07:21.804Z,99949.69
2022-08-19T18:10:50.264Z,99958.33
2022-08-19T18:14:19.041Z,99965.44
2022-08-19T18:17:51.337Z,99967.61
2022-08-19T18:21:19.232Z,99969.77
2022-08-19T18:24:46.513Z,99966.89
2022-08-19T18:28:14.957Z,99968.38
2022-08-19T18:31:44.846Z,99970.59
2022-08-19T18:35:20.538Z,99975.16
2022-08-19T18:39:06.924Z,99972.04
2022-08-19T18:42:53.673Z,99969.27
2022-08-19T18:46:41.904Z,99971.11
2022-08-19T18:50:13.889Z,99973.39
2022-08-19T18:53:46.621Z,99975.69
2022-08-19T18:57:13.432Z,99977.27
2022-08-19T19:00:46.104Z,99978.29
2022-08-19T19:04:15.616Z,99981.52
2022-08-19T19:07:44.419Z,99985.17
2022-08-19T19:11:23.810Z,99987.00
2022-08-19T19:14:53.475Z,99990.29
2022-08-19T19:18:23.577Z,99984.51
2022-08-19T19:22:00.154Z,99986.20
2022-08-19T19:25:49.833Z,99998.11
2022-08-19T19:29:23.347Z,100006.01
2022-08-19T19:32:51.818Z,100010.06
2022-08-19T19:36:20.497Z,100014.41
2022-08-19T19:39:51.852Z,100017.66
2022-08-19T19:43:23.553Z,100017.11
2022-08-19T19:47:00.475Z,100017.48
2022-08-19T19:50:30.623Z,100017.16
2022-08-19T19:54:02.396Z,100011.29
2022-08-19T19:57:32.021Z,100019.11
2022-08-19T20:01:09.548Z,100026.16
2022-08-19T20:04:41.989Z,100032.26
2022-08-19T20:08:27.402Z,100031.08
2022-08-19T20:11:58.293Z,100026.79
2022-08-19T20:15:30.490Z,100029.92
2022-08-19T20:18:59.235Z,100043.48
2022-08-19T20:22:29.682Z,100045.98
2022-08-19T20:26:03.204Z,100050.98
2022-08-19T20:29:38.882Z,100049.70
2022-08-19T20:33:10.651Z,100052.12
2022-08-19T20:36:45.336Z,100050.13
2022-08-19T20:40:16.012Z,100043.46
2022-08-19T20:43:48.736Z,100051.36
2022-08-19T20:47:21.260Z,100054.55
2022-08-19T20:50:49.175Z,100056.55
2022-08-19T20:54:21.269Z,100046.26
2022-08-19T20:57:51.244Z,100043.48
2022-08-19T21:01:20.600Z,100040.67
2022-08-19T21:04:53.248Z,100045.82
2022-08-19T21:08:30.452Z,100043.89
2022-08-19T21:11:59.419Z,100051.83
2022-08-19T21:15:27.555Z,100052.39
2022-08-19T21:19:01.414Z,100056.23
2022-08-19T21:22:34.822Z,100054.52
2022-08-19T21:26:03.280Z,100055.23
2022-08-19T21:29:32.440Z,100051.50
2022-08-19T21:33:01.319Z,100062.16
2022-08-19T21:36:28.677Z,100067.86
2022-08-19T21:40:01.909Z,100072.05
2022-08-19T21:43:33.791Z,100070.92
2022-08-19T21:47:10.625Z,100070.80
2022-08-19T21:50:40.136Z,100069.09
2022-08-19T21:54:14.073Z,100079.00
2022-08-19T21:57:43.357Z,100077.27
2022-08-19T22:01:13.271Z,100081.58
2022-08-19T22:04:45.401Z,100075.77
2022-08-19T22:08:20.537Z,100081.77
2022-08-19T22:11:50.934Z,100079.48
2022-08-19T22:15:21.965Z,100072.27
2022-08-19T22:18:51.110Z,100059.38
2022-08-19T22:22:24.355Z,100055.20
2022-08-19T22:25:54.256Z,100053.15
2022-08-19T22:29:33.727Z,100052.71
2022-08-19T22:33:21.785Z,100053.27
2022-08-19T22:36:53.010Z,100057.16
2022-08-19T22:40:22.999Z,100057.29
2022-08-19T22:43:54.387Z,100067.97
2022-08-19T22:47:32.110Z,100080.54
2022-08-19T22:51:22.838Z,100093.63
2022-08-19T22:55:02.359Z,100105.35
2022-08-19T22:58:31.812Z,100113.14
2022-08-19T23:02:05.938Z,100118.11
2022-08-19T23:05:37.160Z,100118.05
2022-08-19T23:09:11.188Z,100109.73
2022-08-19T23:12:48.030Z,100113.99
2022-08-19T23:16:21.746Z,100117.45
2022-08-19T23:19:51.156Z,100122.58
2022-08-19T23:23:25.261Z,100126.93
2022-08-19T23:27:12.022Z,100131.37
2022-08-19T23:30:43.900Z,100131.80
2022-08-19T23:34:16.115Z,100117.73
2022-08-19T23:37:45.099Z,100108.05
2022-08-19T23:41:15.233Z,100094.05
2022-08-19T23:44:51.336Z,100085.00
2022-08-19T23:48:20.102Z,100081.58
2022-08-19T23:51:47.478Z,100075.84
2022-08-19T23:55:16.498Z,100084.00
2022-08-19T23:58:44.203Z,100090.89
